Time;durP1;ratioP1;P1;durP2;ratioP2;P2;SDS_P1;SDS_P2;PMS_P1;PMS_P2;Temp;Humidity;BMP_temperature;BMP_pressure;BME280_temperature;BME280_humidity;BME280_pressure;Samples;Min_cycle;Max_cycle;Signal;HPM_P1;HPM_P2
2021/01/08 00:01:41;;;;;;;0.63;0.63;;;-1.50;99.90;;;;;;5075053;28;20031;-85
2021/01/08 00:04:13;;;;;;;0.25;0.25;;;-1.70;99.90;;;;;;5069604;28;20028;-85
2021/01/08 00:06:43;;;;;;;0.10;0.10;;;-1.60;99.90;;;;;;5079820;28;20052;-85
2021/01/08 00:09:09;;;;;;;0.40;0.40;;;-1.60;99.90;;;;;;5084340;28;20172;-86
2021/01/08 00:11:35;;;;;;;0.95;0.95;;;-1.40;99.90;;;;;;5085881;28;20503;-86
2021/01/08 00:14:05;;;;;;;2.13;1.55;;;-1.40;99.90;;;;;;5079080;28;20449;-86
2021/01/08 00:16:34;;;;;;;0.20;0.20;;;-1.30;99.90;;;;;;5077836;28;20028;-86
2021/01/08 00:19:01;;;;;;;0.10;0.10;;;-1.40;99.90;;;;;;5076064;28;20113;-85
2021/01/08 00:21:56;;;;;;;1.08;1.08;;;-1.30;99.90;;;;;;5081177;28;20090;-84
2021/01/08 00:24:22;;;;;;;0.52;0.52;;;-1.40;99.90;;;;;;5056341;28;20127;-85
2021/01/08 00:26:48;;;;;;;0.30;0.30;;;-1.50;99.90;;;;;;5086801;28;20535;-85
2021/01/08 00:29:16;;;;;;;0.95;0.95;;;-1.50;99.90;;;;;;5080578;28;20024;-85
2021/01/08 00:31:46;;;;;;;0.20;0.20;;;-1.20;99.90;;;;;;5085796;28;20028;-85
2021/01/08 00:34:17;;;;;;;0.55;0.55;;;-1.30;99.90;;;;;;5083716;28;20035;-85
2021/01/08 00:36:54;;;;;;;0.98;0.68;;;-1.30;99.90;;;;;;5082985;28;20166;-85
2021/01/08 00:39:21;;;;;;;0.20;0.20;;;-1.50;99.90;;;;;;5089557;28;20028;-85
2021/01/08 00:41:47;;;;;;;0.60;0.60;;;-1.50;99.90;;;;;;5089918;28;20403;-85
2021/01/08 00:44:14;;;;;;;0.68;0.68;;;-1.70;99.90;;;;;;5089834;28;20025;-85
2021/01/08 00:46:42;;;;;;;0.10;0.10;;;-1.80;99.90;;;;;;5089216;28;20036;-87
2021/01/08 00:49:09;;;;;;;0.10;0.10;;;-2.00;99.90;;;;;;5077527;28;20024;-87
2021/01/08 00:51:35;;;;;;;0.10;0.10;;;-2.00;99.90;;;;;;5087094;28;20044;-87
2021/01/08 00:54:02;;;;;;;0.30;0.30;;;-2.00;99.90;;;;;;5087205;28;20036;-87
2021/01/08 00:56:28;;;;;;;0.28;0.28;;;-2.10;99.90;;;;;;5091248;28;20023;-86
2021/01/08 00:58:54;;;;;;;0.28;0.28;;;-2.10;99.90;;;;;;5086367;28;20028;-87
2021/01/08 01:01:20;;;;;;;0.40;0.40;;;-2.30;99.90;;;;;;5089764;28;20016;-87
2021/01/08 01:03:47;;;;;;;0.35;0.35;;;-2.50;99.90;;;;;;5089046;28;20087;-87
2021/01/08 01:06:21;;;;;;;1.10;1.00;;;-2.50;99.90;;;;;;5091058;28;20566;-87
2021/01/08 01:08:47;;;;;;;0.15;0.15;;;-2.50;99.90;;;;;;5087917;28;20095;-87
2021/01/08 01:11:15;;;;;;;0.40;0.40;;;-2.40;99.90;;;;;;5089094;28;20511;-87
2021/01/08 01:13:41;;;;;;;0.55;0.55;;;-2.50;99.90;;;;;;5090977;28;20109;-86
2021/01/08 01:16:06;;;;;;;0.38;0.38;;;-2.50;99.90;;;;;;5084588;28;20063;-87
2021/01/08 01:18:32;;;;;;;0.32;0.32;;;-2.20;99.90;;;;;;5079396;28;20044;-86
2021/01/08 01:20:58;;;;;;;0.90;0.90;;;-2.20;99.90;;;;;;5084939;28;20572;-86
2021/01/08 01:23:24;;;;;;;2.53;0.85;;;-2.20;99.90;;;;;;5090973;28;20617;-86
2021/01/08 01:25:49;;;;;;;0.40;0.40;;;-2.20;99.90;;;;;;5084184;28;20138;-86
2021/01/08 01:28:15;;;;;;;1.80;1.70;;;-2.10;99.90;;;;;;5078070;28;20047;-87
2021/01/08 01:30:41;;;;;;;0.20;0.20;;;-2.00;99.90;;;;;;5078203;28;20028;-86
2021/01/08 01:33:07;;;;;;;0.30;0.30;;;-2.20;99.90;;;;;;5074740;28;20031;-86
2021/01/08 01:35:42;;;;;;;0.30;0.30;;;-2.20;99.90;;;;;;5077862;28;20020;-85
2021/01/08 01:38:11;;;;;;;0.77;0.77;;;-2.10;99.90;;;;;;5086406;28;20169;-86
2021/01/08 01:40:40;;;;;;;1.52;1.40;;;-2.20;99.90;;;;;;5080949;28;20108;-87
2021/01/08 01:43:11;;;;;;;0.22;0.22;;;-2.20;99.90;;;;;;5087072;28;20027;-87
2021/01/08 01:45:36;;;;;;;0.20;0.20;;;-2.50;99.90;;;;;;5078334;28;20028;-87
2021/01/08 01:48:03;;;;;;;0.40;0.40;;;-2.40;99.90;;;;;;5088412;28;20514;-87
2021/01/08 01:50:29;;;;;;;0.52;0.52;;;-2.50;99.90;;;;;;5088686;28;20052;-86
2021/01/08 01:52:55;;;;;;;0.20;0.20;;;-2.60;99.90;;;;;;5086004;28;20037;-87
2021/01/08 01:55:22;;;;;;;0.10;0.10;;;-2.50;99.90;;;;;;5085826;28;20274;-87
2021/01/08 01:57:52;;;;;;;0.10;0.10;;;-2.60;99.90;;;;;;5087037;28;20658;-86
2021/01/08 02:00:18;;;;;;;0.77;0.77;;;-2.50;99.90;;;;;;5083071;28;20036;-86
2021/01/08 02:03:00;;;;;;;0.30;0.30;;;-2.60;99.90;;;;;;5087349;28;20020;-88
2021/01/08 02:05:32;;;;;;;0.20;0.20;;;-2.60;99.90;;;;;;5085216;28;20032;-86
2021/01/08 02:08:16;;;;;;;0.70;0.70;;;-2.50;99.90;;;;;;5083961;28;20020;-86
2021/01/08 02:10:56;;;;;;;0.10;0.10;;;-2.30;99.90;;;;;;5083731;28;20016;-85
2021/01/08 02:13:53;;;;;;;0.20;0.20;;;-2.60;99.90;;;;;;5088481;28;20033;-86
2021/01/08 02:16:20;;;;;;;0.75;0.75;;;-2.60;99.90;;;;;;5073342;28;20028;-87
2021/01/08 02:18:47;;;;;;;0.98;0.80;;;-2.70;99.90;;;;;;5077385;28;20043;-87
2021/01/08 02:21:20;;;;;;;0.20;0.20;;;-2.70;99.90;;;;;;5089729;28;20073;-87
2021/01/08 02:24:02;;;;;;;1.38;1.27;;;-2.70;99.90;;;;;;5081233;28;20056;-87
2021/01/08 02:26:28;;;;;;;0.95;0.95;;;-2.50;99.90;;;;;;5077506;28;20480;-87
2021/01/08 02:28:55;;;;;;;0.40;0.40;;;-2.50;99.90;;;;;;5073305;28;20094;-87
2021/01/08 02:31:22;;;;;;;0.20;0.20;;;-2.60;99.90;;;;;;5083870;28;20040;-86
2021/01/08 02:33:48;;;;;;;0.45;0.45;;;-2.70;99.90;;;;;;5073611;28;20024;-86
2021/01/08 02:36:19;;;;;;;1.00;0.75;;;-2.70;99.90;;;;;;5077766;28;20028;-86
2021/01/08 02:38:52;;;;;;;0.20;0.20;;;-2.60;99.90;;;;;;5084060;28;20849;-86
2021/01/08 02:41:23;;;;;;;0.20;0.20;;;-2.50;99.90;;;;;;5073864;28;20020;-88
2021/01/08 02:43:51;;;;;;;0.30;0.30;;;-2.50;99.90;;;;;;5081294;28;20017;-87
2021/01/08 02:46:17;;;;;;;0.20;0.20;;;-2.80;99.90;;;;;;5075800;28;20043;-86
2021/01/08 02:48:43;;;;;;;1.05;0.85;;;-2.70;99.90;;;;;;5087646;28;20036;-88
2021/01/08 02:51:09;;;;;;;0.20;0.20;;;-2.60;99.90;;;;;;5084278;28;20417;-88
2021/01/08 02:53:38;;;;;;;2.45;1.17;;;-2.50;99.90;;;;;;5075652;28;20047;-88
2021/01/08 02:56:20;;;;;;;0.45;0.45;;;-2.60;99.90;;;;;;5073290;28;20032;-88
2021/01/08 02:58:47;;;;;;;1.20;1.13;;;-2.80;99.90;;;;;;5073440;28;20052;-88
2021/01/08 03:01:13;;;;;;;0.20;0.20;;;-2.80;99.90;;;;;;5079728;28;20029;-88
2021/01/08 03:03:45;;;;;;;0.20;0.20;;;-2.70;99.90;;;;;;5082943;28;20028;-89
2021/01/08 03:06:18;;;;;;;0.20;0.20;;;-2.70;99.90;;;;;;5081369;28;20031;-88
2021/01/08 03:08:54;;;;;;;1.67;1.58;;;-2.40;99.90;;;;;;5078337;28;20032;-88
2021/01/08 03:11:22;;;;;;;0.20;0.20;;;-2.30;99.90;;;;;;5077493;28;20031;-88
2021/01/08 03:13:55;;;;;;;0.20;0.20;;;-2.50;99.90;;;;;;5077076;28;20469;-89
2021/01/08 03:16:26;;;;;;;0.73;0.60;;;-2.40;99.90;;;;;;5075556;28;20024;-88
2021/01/08 03:18:55;;;;;;;0.20;0.20;;;-2.30;99.90;;;;;;5074652;28;20032;-89
2021/01/08 03:21:27;;;;;;;0.30;0.30;;;-2.30;99.90;;;;;;5088514;28;20107;-89
2021/01/08 03:23:52;;;;;;;0.88;0.88;;;-2.40;99.90;;;;;;5085963;28;20085;-87
2021/01/08 03:26:18;;;;;;;0.40;0.40;;;-2.40;99.90;;;;;;5087348;28;20016;-89
2021/01/08 03:28:44;;;;;;;0.40;0.40;;;-2.30;99.90;;;;;;5085513;28;20032;-88
2021/01/08 03:31:10;;;;;;;0.10;0.10;;;-2.30;99.90;;;;;;5077682;28;20430;-88
2021/01/08 03:33:35;;;;;;;0.77;0.77;;;-2.30;99.90;;;;;;5086351;28;20028;-88
2021/01/08 03:36:10;;;;;;;0.30;0.30;;;-2.20;99.90;;;;;;5088551;28;20031;-88
2021/01/08 03:38:40;;;;;;;0.20;0.20;;;-2.30;99.90;;;;;;5072102;28;20441;-88
2021/01/08 03:41:13;;;;;;;0.93;0.93;;;-2.20;99.90;;;;;;5087617;28;20632;-88
2021/01/08 03:43:39;;;;;;;0.20;0.20;;;-2.20;99.90;;;;;;5073203;28;20552;-88
2021/01/08 03:46:06;;;;;;;11.38;3.00;;;-2.50;99.90;;;;;;5088974;28;20102;-87
2021/01/08 03:48:33;;;;;;;0.47;0.47;;;-2.40;99.90;;;;;;5081266;28;20116;-87
2021/01/08 03:50:59;;;;;;;0.20;0.20;;;-2.40;99.90;;;;;;5088538;28;20404;-88
2021/01/08 03:53:25;;;;;;;1.00;1.00;;;-2.20;99.90;;;;;;5085988;28;20028;-88
2021/01/08 03:55:50;;;;;;;0.77;0.77;;;-2.40;99.90;;;;;;5086842;28;20056;-87
2021/01/08 03:58:16;;;;;;;0.35;0.35;;;-2.20;99.90;;;;;;5078470;28;20028;-86
2021/01/08 04:00:42;;;;;;;0.65;0.60;;;-2.10;99.90;;;;;;5069537;28;20032;-86
2021/01/08 04:03:08;;;;;;;1.00;1.00;;;-1.70;99.90;;;;;;5087897;28;20024;-86
2021/01/08 04:05:45;;;;;;;1.85;0.73;;;-2.00;99.90;;;;;;5082825;28;20384;-87
2021/01/08 04:08:14;;;;;;;0.20;0.20;;;-1.50;99.90;;;;;;5072028;28;20038;-86
2021/01/08 04:10:39;;;;;;;1.05;1.05;;;-1.90;99.90;;;;;;5082737;28;20039;-86
2021/01/08 04:13:05;;;;;;;0.20;0.20;;;-2.10;99.90;;;;;;5089836;28;20035;-86
2021/01/08 04:15:31;;;;;;;0.20;0.20;;;-2.00;99.90;;;;;;5086083;28;20027;-86
2021/01/08 04:17:57;;;;;;;0.10;0.10;;;-1.60;99.90;;;;;;5092502;28;20102;-87
2021/01/08 04:20:22;;;;;;;0.45;0.40;;;-1.60;99.90;;;;;;5085654;28;20040;-87
2021/01/08 04:22:48;;;;;;;0.20;0.20;;;-1.20;99.90;;;;;;5081686;28;20123;-86
2021/01/08 04:25:14;;;;;;;0.20;0.20;;;-1.50;99.90;;;;;;5084576;28;20077;-86
2021/01/08 04:27:40;;;;;;;0.25;0.25;;;-1.40;99.90;;;;;;5086624;28;20048;-86
2021/01/08 04:30:06;;;;;;;1.05;1.05;;;-1.70;99.90;;;;;;5076133;28;20101;-87
2021/01/08 04:32:32;;;;;;;5.03;1.88;;;-1.70;99.90;;;;;;5074819;28;20032;-85
2021/01/08 04:35:11;;;;;;;0.50;0.50;;;-1.80;99.90;;;;;;5074964;28;20033;-86
2021/01/08 04:37:38;;;;;;;0.13;0.13;;;-1.10;99.90;;;;;;5084104;28;20258;-86
2021/01/08 04:40:04;;;;;;;1.55;1.45;;;-1.60;99.90;;;;;;5085056;28;20028;-86
2021/01/08 04:42:33;;;;;;;0.20;0.20;;;-1.70;99.90;;;;;;5082887;28;20055;-86
2021/01/08 04:44:59;;;;;;;0.35;0.35;;;-1.70;99.90;;;;;;5086943;28;20027;-86
2021/01/08 04:47:26;;;;;;;0.20;0.20;;;-1.80;99.90;;;;;;5078926;28;20012;-86
2021/01/08 04:49:51;;;;;;;0.10;0.10;;;-1.60;99.90;;;;;;5079894;28;20428;-86
2021/01/08 04:52:19;;;;;;;0.32;0.32;;;-1.90;99.90;;;;;;5084738;28;20081;-86
2021/01/08 04:54:45;;;;;;;2.83;0.57;;;-1.80;99.90;;;;;;5089651;28;20487;-87
2021/01/08 04:57:13;;;;;;;0.13;0.13;;;-1.90;99.90;;;;;;5085873;28;20039;-87
2021/01/08 04:59:40;;;;;;;0.73;0.73;;;-1.80;99.90;;;;;;5079822;28;20036;-87
2021/01/08 05:02:06;;;;;;;0.22;0.22;;;-1.90;99.90;;;;;;5086940;28;20031;-85
2021/01/08 05:04:33;;;;;;;0.50;0.50;;;-2.00;99.90;;;;;;5087474;28;20105;-87
2021/01/08 05:07:02;;;;;;;0.90;0.65;;;-1.90;99.90;;;;;;5090232;28;20024;-87
2021/01/08 05:09:33;;;;;;;1.10;1.10;;;-1.90;99.90;;;;;;5086029;28;20020;-86
2021/01/08 05:12:00;;;;;;;0.70;0.68;;;-1.80;99.90;;;;;;5088334;28;20028;-86
2021/01/08 05:14:27;;;;;;;0.20;0.20;;;-1.90;99.90;;;;;;5080504;28;20027;-85
2021/01/08 05:16:55;;;;;;;0.32;0.32;;;-1.70;99.90;;;;;;5088318;28;20036;-85
2021/01/08 05:19:24;;;;;;;2.83;1.08;;;-1.60;99.90;;;;;;5084244;28;20559;-85
2021/01/08 05:21:53;;;;;;;0.10;0.10;;;-1.70;99.90;;;;;;5078677;28;20048;-85
2021/01/08 05:24:22;;;;;;;0.20;0.20;;;-1.80;99.90;;;;;;5077975;28;20105;-87
2021/01/08 05:26:48;;;;;;;0.95;0.95;;;-1.80;99.90;;;;;;5082209;28;20023;-87
2021/01/08 05:29:13;;;;;;;0.20;0.20;;;-1.80;99.90;;;;;;5083586;28;20647;-87
2021/01/08 05:31:40;;;;;;;1.00;1.00;;;-1.90;99.90;;;;;;5089826;28;20032;-88
2021/01/08 05:34:06;;;;;;;0.10;0.10;;;-1.90;99.90;;;;;;5081227;28;20435;-87
2021/01/08 05:36:41;;;;;;;1.63;0.50;;;-2.00;99.90;;;;;;5087272;28;20032;-86
2021/01/08 05:39:10;;;;;;;0.63;0.63;;;-2.20;99.90;;;;;;5081627;28;20716;-87
2021/01/08 05:41:48;;;;;;;0.88;0.88;;;-2.30;99.90;;;;;;5074975;28;20394;-90
2021/01/08 05:44:23;;;;;;;4.38;1.20;;;-2.40;99.90;;;;;;5087158;28;20028;-91
2021/01/08 05:46:50;;;;;;;0.40;0.40;;;-2.30;99.90;;;;;;5080740;28;20116;-88
2021/01/08 05:49:22;;;;;;;0.52;0.52;;;-2.30;99.90;;;;;;5088548;28;20529;-90
2021/01/08 05:51:58;;;;;;;0.25;0.25;;;-2.50;99.90;;;;;;5075707;28;20032;-91
2021/01/08 05:54:26;;;;;;;0.30;0.30;;;-2.50;99.90;;;;;;5084487;28;20024;-91
2021/01/08 05:56:52;;;;;;;0.20;0.20;;;-2.60;99.90;;;;;;5090207;28;20067;-87
2021/01/08 05:59:25;;;;;;;0.28;0.28;;;-2.60;99.90;;;;;;5082574;28;20564;-88
2021/01/08 06:01:55;;;;;;;0.30;0.30;;;-2.50;99.90;;;;;;5075368;28;20479;-89
2021/01/08 06:04:21;;;;;;;0.30;0.30;;;-2.60;99.90;;;;;;5081128;28;20024;-88
2021/01/08 06:06:54;;;;;;;0.70;0.70;;;-2.60;99.90;;;;;;5086163;28;20054;-87
2021/01/08 06:09:24;;;;;;;0.32;0.32;;;-2.60;99.90;;;;;;5088113;28;20032;-89
2021/01/08 06:11:59;;;;;;;0.98;0.98;;;-2.60;99.90;;;;;;5070826;28;20029;-88
2021/01/08 06:14:36;;;;;;;0.55;0.55;;;-2.40;99.90;;;;;;5087439;28;20035;-89
2021/01/08 06:17:07;;;;;;;;;;;-2.40;99.90;;;;;;5090147;28;20016;-89
2021/01/08 06:19:36;;;;;;;0.57;0.57;;;-2.40;99.90;;;;;;5079821;28;20428;-91
2021/01/08 06:22:02;;;;;;;0.43;0.43;;;-2.50;99.90;;;;;;5083930;28;20502;-90
2021/01/08 06:24:28;;;;;;;1.20;0.85;;;-2.70;99.90;;;;;;5083224;28;20020;-90
2021/01/08 06:26:55;;;;;;;0.40;0.40;;;-2.50;99.90;;;;;;5077996;28;20039;-87
2021/01/08 06:29:23;;;;;;;0.30;0.30;;;-2.50;99.90;;;;;;5084292;28;20043;-86
2021/01/08 06:31:52;;;;;;;0.20;0.20;;;-2.60;99.90;;;;;;5073156;28;20062;-86
2021/01/08 06:34:25;;;;;;;0.10;0.10;;;-2.60;99.90;;;;;;5082451;28;20020;-85
2021/01/08 06:37:09;;;;;;;0.65;0.65;;;-2.60;99.90;;;;;;5074125;28;20028;-87
2021/01/08 06:39:37;;;;;;;0.47;0.47;;;-2.40;99.90;;;;;;5080714;28;20392;-87
2021/01/08 06:42:04;;;;;;;0.10;0.10;;;-2.40;99.90;;;;;;5089566;28;20054;-85
2021/01/08 06:44:30;;;;;;;1.02;1.02;;;-2.40;99.90;;;;;;5082670;28;20095;-84
2021/01/08 06:47:04;;;;;;;0.13;0.13;;;-2.60;99.90;;;;;;5077392;28;20025;-84
2021/01/08 06:49:32;;;;;;;1.25;0.45;;;-2.60;99.90;;;;;;5075966;28;20095;-86
2021/01/08 06:52:01;;;;;;;1.77;1.65;;;-2.80;99.90;;;;;;5084852;28;20039;-86
2021/01/08 06:54:28;;;;;;;0.25;0.25;;;-3.00;99.90;;;;;;5078318;28;20023;-87
2021/01/08 06:57:01;;;;;;;0.75;0.75;;;-3.00;99.90;;;;;;5089029;28;20044;-87
2021/01/08 06:59:31;;;;;;;0.30;0.30;;;-3.00;99.90;;;;;;5079401;28;20020;-89
2021/01/08 07:02:09;;;;;;;0.22;0.22;;;-3.20;99.90;;;;;;5082228;28;20119;-87
2021/01/08 07:04:38;;;;;;;0.60;0.60;;;-3.30;99.90;;;;;;5070365;28;20101;-87
2021/01/08 07:07:06;;;;;;;0.30;0.30;;;-3.40;99.90;;;;;;5084403;28;20794;-87
2021/01/08 07:09:34;;;;;;;0.10;0.10;;;-3.40;99.90;;;;;;5087472;28;20035;-87
2021/01/08 07:12:01;;;;;;;0.10;0.10;;;-3.50;99.90;;;;;;5089122;28;20028;-87
2021/01/08 07:14:27;;;;;;;0.22;0.22;;;-3.30;99.90;;;;;;5083928;28;20031;-87
2021/01/08 07:16:54;;;;;;;1.08;0.82;;;-3.40;99.90;;;;;;5082794;28;20028;-87
2021/01/08 07:19:23;;;;;;;0.63;0.63;;;-3.40;99.90;;;;;;5088773;28;20448;-87
2021/01/08 07:21:54;;;;;;;0.20;0.20;;;-3.50;99.90;;;;;;5088972;28;20108;-87
2021/01/08 07:24:26;;;;;;;0.57;0.57;;;-3.50;99.90;;;;;;5084580;28;20035;-88
2021/01/08 07:26:52;;;;;;;5.03;0.55;;;-3.50;99.90;;;;;;5076458;28;20043;-87
2021/01/08 07:29:27;;;;;;;0.47;0.47;;;-3.50;99.90;;;;;;5086894;28;20039;-87
2021/01/08 07:31:56;;;;;;;0.20;0.20;;;-3.40;99.90;;;;;;5089003;28;20380;-87
2021/01/08 07:34:33;;;;;;;0.20;0.20;;;-3.50;99.90;;;;;;5089009;28;20028;-87
2021/01/08 07:36:59;;;;;;;1.67;1.58;;;-3.40;99.90;;;;;;5084577;28;20032;-85
2021/01/08 07:39:42;;;;;;;5.43;1.93;;;-3.30;99.90;;;;;;5084484;28;20036;-85
2021/01/08 07:42:34;;;;;;;0.40;0.40;;;-3.20;99.90;;;;;;5082452;28;20269;-87
2021/01/08 07:45:01;;;;;;;0.30;0.30;;;-3.20;99.90;;;;;;5089140;28;20088;-86
2021/01/08 07:47:28;;;;;;;0.20;0.20;;;-3.10;99.90;;;;;;5089005;28;20087;-86
2021/01/08 07:50:05;;;;;;;0.20;0.20;;;-3.00;99.90;;;;;;5088678;28;20072;-86
2021/01/08 07:52:36;;;;;;;1.02;1.02;;;-3.10;99.90;;;;;;5088842;28;20024;-86
2021/01/08 07:55:02;;;;;;;0.25;0.25;;;-3.10;99.90;;;;;;5087350;28;20055;-87
2021/01/08 07:57:28;;;;;;;0.57;0.57;;;-3.10;99.90;;;;;;5088568;28;20024;-87
2021/01/08 07:59:54;;;;;;;0.20;0.20;;;-2.30;99.90;;;;;;5088743;28;20032;-87
2021/01/08 08:02:20;;;;;;;0.20;0.20;;;-1.20;99.90;;;;;;5088120;28;20093;-86
2021/01/08 08:04:46;;;;;;;0.30;0.30;;;-0.40;99.90;;;;;;5088655;28;20560;-86
2021/01/08 08:07:13;;;;;;;1.43;1.33;;;0.50;99.90;;;;;;5077407;28;20047;-86
2021/01/08 08:09:39;;;;;;;0.63;0.63;;;0.70;99.90;;;;;;5088683;28;20395;-86
2021/01/08 08:12:11;;;;;;;0.20;0.20;;;1.70;99.90;;;;;;5074450;28;20025;-86
2021/01/08 08:14:37;;;;;;;0.28;0.28;;;2.00;99.90;;;;;;5081384;28;20029;-86
2021/01/08 08:17:04;;;;;;;0.98;0.80;;;2.20;99.90;;;;;;5083321;28;20039;-86
2021/01/08 08:19:34;;;;;;;0.43;0.43;;;3.00;99.90;;;;;;5079582;28;20024;-87
2021/01/08 08:22:00;;;;;;;0.85;0.85;;;4.10;99.90;;;;;;5082191;28;20039;-86
2021/01/08 08:24:28;;;;;;;0.28;0.28;;;4.30;99.90;;;;;;5081917;28;20021;-86
2021/01/08 08:26:54;;;;;;;0.20;0.20;;;5.80;99.90;;;;;;5080491;28;20059;-87
2021/01/08 08:29:22;;;;;;;0.73;0.73;;;6.00;99.90;;;;;;5088216;28;20028;-86
2021/01/08 08:31:52;;;;;;;0.68;0.68;;;4.30;99.90;;;;;;5088725;28;20284;-86
2021/01/08 08:34:31;;;;;;;0.10;0.10;;;4.40;99.90;;;;;;5088296;28;20080;-86
2021/01/08 08:37:07;;;;;;;0.32;0.32;;;5.00;99.90;;;;;;5088729;28;20361;-86
2021/01/08 08:39:33;;;;;;;0.10;0.10;;;6.30;99.90;;;;;;5088048;28;20781;-86
2021/01/08 08:41:59;;;;;;;1.10;1.10;;;7.30;99.90;;;;;;5088405;28;20151;-86
2021/01/08 08:44:25;;;;;;;1.05;0.77;;;6.80;99.90;;;;;;5087998;28;20051;-86
2021/01/08 08:46:55;;;;;;;0.60;0.60;;;6.30;99.90;;;;;;5088246;28;20020;-86
2021/01/08 08:49:30;;;;;;;0.17;0.17;;;6.90;99.90;;;;;;5087816;28;20516;-85
2021/01/08 08:51:56;;;;;;;1.30;1.20;;;7.70;99.90;;;;;;5074009;28;20024;-86
2021/01/08 08:54:26;;;;;;;0.20;0.20;;;8.50;99.90;;;;;;5087899;28;20030;-85
2021/01/08 08:56:56;;;;;;;0.93;0.93;;;7.10;99.90;;;;;;5088085;28;20139;-85
2021/01/08 08:59:42;;;;;;;0.40;0.40;;;6.30;99.90;;;;;;5089752;28;20060;-85
2021/01/08 09:02:23;;;;;;;0.32;0.32;;;5.60;99.90;;;;;;5087374;28;20017;-85
2021/01/08 09:04:53;;;;;;;0.30;0.30;;;5.90;99.90;;;;;;5083662;28;20499;-85
2021/01/08 09:07:34;;;;;;;0.15;0.15;;;5.40;99.90;;;;;;5091301;28;20030;-85
2021/01/08 09:10:12;;;;;;;3.40;1.15;;;6.20;99.90;;;;;;5090257;28;20119;-85
2021/01/08 09:12:58;;;;;;;0.20;0.20;;;5.80;99.90;;;;;;5084664;28;20480;-85
2021/01/08 09:15:28;;;;;;;;;;;6.40;99.90;;;;;;5075342;28;20043;-84
2021/01/08 09:18:23;;;;;;;0.10;0.10;;;5.80;99.90;;;;;;5091422;28;19904;-84
2021/01/08 09:21:00;;;;;;;0.75;0.75;;;5.40;99.90;;;;;;5075344;28;20027;-84
2021/01/08 09:23:31;;;;;;;3.85;2.47;;;5.90;99.90;;;;;;5090963;28;20024;-85
2021/01/08 09:26:04;;;;;;;0.30;0.30;;;6.10;99.90;;;;;;5091376;28;20035;-85
2021/01/08 09:28:38;;;;;;;0.40;0.40;;;8.60;99.90;;;;;;5090933;28;20028;-84
2021/01/08 09:31:04;;;;;;;1.15;0.90;;;8.10;99.90;;;;;;5090936;28;20419;-84
2021/01/08 09:33:30;;;;;;;0.50;0.50;;;7.90;99.90;;;;;;5091106;28;20032;-84
2021/01/08 09:35:55;;;;;;;0.75;0.75;;;8.10;99.90;;;;;;5091416;28;20028;-85
2021/01/08 09:38:24;;;;;;;1.35;0.68;;;7.50;99.90;;;;;;5090912;28;20016;-84
2021/01/08 09:40:50;;;;;;;0.22;0.22;;;8.00;99.90;;;;;;5090720;28;20105;-85
2021/01/08 09:43:18;;;;;;;1.80;1.10;;;8.60;99.90;;;;;;5090973;28;20024;-85
2021/01/08 09:45:44;;;;;;;0.50;0.50;;;7.50;99.90;;;;;;5090621;28;20016;-85
2021/01/08 09:48:22;;;;;;;0.73;0.73;;;8.50;99.90;;;;;;5091000;28;20027;-86
2021/01/08 09:51:03;;;;;;;0.20;0.20;;;8.40;99.90;;;;;;5089955;28;20047;-85
2021/01/08 09:53:31;;;;;;;0.40;0.40;;;8.60;99.90;;;;;;5076208;28;20119;-85
2021/01/08 09:56:14;;;;;;;1.58;1.48;;;8.30;99.90;;;;;;5089824;28;20039;-85
2021/01/08 09:58:40;;;;;;;1.48;1.38;;;8.00;99.90;;;;;;5090166;28;20027;-86
2021/01/08 10:01:08;;;;;;;0.28;0.28;;;8.10;99.90;;;;;;5089078;28;20030;-87
2021/01/08 10:03:33;;;;;;;1.95;1.33;;;7.50;99.90;;;;;;5090266;28;20105;-86
2021/01/08 10:06:09;;;;;;;1.08;1.05;;;7.60;99.90;;;;;;5081192;28;20052;-86
2021/01/08 10:08:35;;;;;;;0.40;0.40;;;7.30;99.90;;;;;;5086037;28;20027;-86
2021/01/08 10:11:01;;;;;;;1.80;1.10;;;7.30;99.90;;;;;;5090044;28;20407;-86
2021/01/08 10:13:27;;;;;;;0.35;0.35;;;8.00;99.90;;;;;;5090407;28;20024;-86
2021/01/08 10:15:56;;;;;;;0.20;0.20;;;8.50;99.90;;;;;;5078651;28;20019;-85
2021/01/08 10:18:27;;;;;;;0.20;0.20;;;9.60;99.90;;;;;;5090455;28;20016;-86
2021/01/08 10:20:56;;;;;;;0.10;0.10;;;8.80;99.90;;;;;;5075319;28;20415;-86
2021/01/08 10:23:25;;;;;;;0.32;0.32;;;9.70;99.90;;;;;;5088802;28;20016;-85
2021/01/08 10:25:52;;;;;;;0.35;0.35;;;11.50;99.90;;;;;;5089411;28;20027;-85
2021/01/08 10:28:25;;;;;;;0.10;0.10;;;11.10;99.90;;;;;;5079770;28;20016;-85
2021/01/08 10:30:55;;;;;;;0.68;0.32;;;11.60;99.90;;;;;;5089749;28;20149;-85
2021/01/08 10:33:23;;;;;;;1.00;0.80;;;10.80;99.90;;;;;;5089699;28;20031;-85
2021/01/08 10:35:54;;;;;;;0.10;0.10;;;10.10;99.90;;;;;;5089644;28;20065;-85
2021/01/08 10:38:21;;;;;;;0.95;0.95;;;10.20;99.90;;;;;;5089328;28;20618;-85
2021/01/08 10:40:47;;;;;;;0.10;0.10;;;11.30;99.90;;;;;;5087978;28;20531;-85
2021/01/08 10:43:13;;;;;;;0.20;0.20;;;11.80;99.90;;;;;;5089739;28;20031;-86
2021/01/08 10:45:39;;;;;;;0.20;0.20;;;11.40;99.90;;;;;;5089548;28;20020;-85
2021/01/08 10:48:06;;;;;;;0.50;0.50;;;9.90;99.90;;;;;;5089572;28;20051;-85
2021/01/08 10:50:33;;;;;;;0.20;0.20;;;9.40;99.90;;;;;;5088825;28;20562;-85
2021/01/08 10:53:00;;;;;;;0.52;0.52;;;11.20;99.90;;;;;;5089151;28;20103;-85
2021/01/08 10:55:25;;;;;;;0.50;0.50;;;11.80;99.90;;;;;;5089211;28;20028;-85
2021/01/08 10:57:51;;;;;;;0.40;0.40;;;12.00;99.90;;;;;;5088998;28;20028;-85
2021/01/08 11:00:19;;;;;;;1.08;1.02;;;13.90;99.90;;;;;;5087080;28;20012;-85
2021/01/08 11:02:45;;;;;;;1.23;1.15;;;12.80;99.90;;;;;;5089077;28;20368;-85
2021/01/08 11:05:11;;;;;;;0.38;0.38;;;11.50;99.90;;;;;;5075087;28;20395;-85
2021/01/08 11:07:37;;;;;;;3.47;2.90;;;9.60;99.90;;;;;;5088833;28;20114;-85
2021/01/08 11:10:05;;;;;;;1.52;1.17;;;8.70;99.90;;;;;;5089156;28;20353;-85
2021/01/08 11:12:34;;;;;;;0.30;0.30;;;10.30;99.90;;;;;;5074790;28;20020;-85
2021/01/08 11:15:03;;;;;;;1.75;1.05;;;8.10;99.90;;;;;;5079176;28;20435;-85
2021/01/08 11:17:29;;;;;;;0.52;0.52;;;9.10;99.90;;;;;;5087557;28;20730;-85
2021/01/08 11:19:54;;;;;;;1.38;1.15;;;7.60;99.90;;;;;;5087187;28;20047;-85
2021/01/08 11:22:20;;;;;;;0.32;0.32;;;7.70;99.90;;;;;;5086823;28;20074;-85
2021/01/08 11:24:46;;;;;;;0.13;0.13;;;8.20;99.90;;;;;;5088556;28;20067;-85
2021/01/08 11:27:12;;;;;;;3.83;1.50;;;10.60;99.90;;;;;;5088275;28;20052;-85
2021/01/08 11:29:37;;;;;;;0.10;0.10;;;8.10;99.90;;;;;;5085413;28;20040;-86
2021/01/08 11:32:09;;;;;;;1.30;1.20;;;8.40;99.90;;;;;;5077091;28;20723;-85
2021/01/08 11:34:38;;;;;;;0.10;0.10;;;8.00;99.90;;;;;;5088536;28;20817;-85
2021/01/08 11:37:05;;;;;;;0.10;0.10;;;7.50;99.90;;;;;;5088666;28;20717;-85
2021/01/08 11:39:31;;;;;;;0.35;0.35;;;7.90;99.90;;;;;;5088516;28;20467;-85
2021/01/08 11:41:57;;;;;;;0.40;0.40;;;8.40;99.90;;;;;;5088314;28;20095;-85
2021/01/08 11:44:24;;;;;;;3.35;1.45;;;8.10;99.90;;;;;;5086911;28;20776;-85
2021/01/08 11:46:50;;;;;;;0.10;0.10;;;8.50;99.90;;;;;;5088353;28;20368;-85
2021/01/08 11:49:17;;;;;;;0.55;0.55;;;9.40;99.90;;;;;;5087989;28;20085;-85
2021/01/08 11:51:43;;;;;;;0.20;0.20;;;8.70;99.90;;;;;;5088287;28;20058;-85
2021/01/08 11:54:09;;;;;;;0.30;0.30;;;7.40;99.90;;;;;;5088526;28;20483;-85
2021/01/08 11:56:35;;;;;;;0.45;0.40;;;7.90;99.90;;;;;;5088388;28;20030;-85
2021/01/08 11:59:00;;;;;;;1.08;0.65;;;7.90;99.90;;;;;;5079136;28;20032;-84
2021/01/08 12:01:27;;;;;;;0.20;0.20;;;6.90;99.90;;;;;;5069478;28;20060;-83
2021/01/08 12:03:54;;;;;;;0.20;0.20;;;4.80;99.90;;;;;;5079787;28;20029;-85
2021/01/08 12:06:31;;;;;;;0.10;0.10;;;3.90;99.90;;;;;;5079684;28;20028;-85
2021/01/08 12:08:58;;;;;;;0.22;0.22;;;3.80;99.90;;;;;;5085158;28;20104;-84
2021/01/08 12:11:25;;;;;;;0.32;0.32;;;3.70;99.90;;;;;;5087010;28;20111;-86
2021/01/08 12:13:51;;;;;;;2.90;1.05;;;3.80;99.90;;;;;;5088726;28;20036;-84
2021/01/08 12:16:25;;;;;;;0.20;0.20;;;3.80;99.90;;;;;;5088212;28;20499;-84
2021/01/08 12:18:51;;;;;;;0.10;0.10;;;3.50;99.90;;;;;;5079262;28;20336;-85
2021/01/08 12:21:17;;;;;;;0.10;0.10;;;3.40;99.90;;;;;;5088911;28;20685;-85
2021/01/08 12:23:42;;;;;;;0.32;0.32;;;3.70;99.90;;;;;;5087340;28;20032;-85
2021/01/08 12:26:16;;;;;;;0.10;0.10;;;3.60;99.90;;;;;;5087132;28;20391;-83
2021/01/08 12:28:41;;;;;;;0.17;0.17;;;3.60;99.90;;;;;;5088227;28;20048;-85
2021/01/08 12:31:07;;;;;;;3.65;1.02;;;3.70;99.90;;;;;;5088578;28;20649;-83
2021/01/08 12:33:33;;;;;;;0.03;0.03;;;3.70;99.90;;;;;;5089023;28;20399;-83
2021/01/08 12:35:59;;;;;;;0.30;0.30;;;3.70;99.90;;;;;;5092639;28;20095;-84
2021/01/08 12:38:24;;;;;;;0.32;0.32;;;3.60;99.90;;;;;;5090755;28;20072;-83
2021/01/08 12:40:50;;;;;;;0.43;0.43;;;3.70;99.90;;;;;;5090996;28;20448;-84
2021/01/08 12:43:16;;;;;;;0.20;0.20;;;3.70;99.90;;;;;;5083472;28;20024;-84
2021/01/08 12:45:42;;;;;;;0.30;0.30;;;3.60;99.90;;;;;;5091970;28;20024;-83
2021/01/08 12:48:08;;;;;;;0.50;0.50;;;3.70;99.90;;;;;;5091979;28;20050;-84
2021/01/08 12:50:35;;;;;;;0.17;0.17;;;3.80;99.90;;;;;;5091392;28;20055;-83
2021/01/08 12:53:01;;;;;;;0.40;0.40;;;3.60;99.90;;;;;;5092449;28;20032;-83
2021/01/08 12:55:27;;;;;;;0.17;0.17;;;3.70;99.90;;;;;;5092059;28;20122;-84
2021/01/08 12:57:52;;;;;;;0.40;0.40;;;3.80;99.90;;;;;;5082039;28;20031;-84
2021/01/08 13:00:18;;;;;;;0.20;0.20;;;3.80;99.90;;;;;;5091567;28;20023;-84